Alto Springs, Texas
Current Conditions -  °F | °C
As of 7:15 PM on Saturday 22 Nov 2014 (Local Time) from KLXY Reporting Station
Thunderstorm Thunderstorm  
Wind Chill: 60°   Ceiling: 10000
Heat Index: 60°   Visibility: 10mi
Dew Point: 60°   Wind: 12mph
Humidity: 98%   Direction: 80°E
Pressure: 29.77"   Gusts: NA
Location:  31.3327°N, 96.6013°W
Report Text: KLXY 230115Z AUTO 08010KT 10SM -VCTSRA SCT004 SCT039 OVC100 16/16 A2977 RMK AO2 LTG DSNT ALQS P0002 T01580155
Loading
Personal Weather Stations






























Interactive Weather Map New forecast layout! Learn more

10-Day Weather Forecast

Advertisements
Track Severe Weather on mobile